CQX weather

Chatham Municipal Airport
Chatham, Massachusetts, United States

Public forecast

Using degrees Fahrenheit for public forecast. Weather courtesy of forecast.io.

METAR (pilot weather report)

Retrieved 2017/10/22 08:52 UTC (23 minutes ago):

KCQX 220852Z AUTO 25003KT 10SM CLR 14/14 A3036 RMK AO2 SLP281 T01390139 53003

TAF (pilot weather forecast)

Closest forecast is Barnstable Municipal Boardman Polando Field, 13.1 nm (24.3 km) W. Retrieved 2017/10/22 06:42 UTC (3 hours ago):

TAF KHYA 220540Z 2206/2306 22005KT P6SM SKC FM221700 19004KT P6SM FEW200